KN60

Garrison Airport

Garrison, North Dakota, USA
METAR KN60 181052Z AUTO 00000KT 04/02 A3010 RMK AO1 SLP201 T00390017
Observed Flight Rules
Oct-18 @ 10:52 UTC (39 minutes ago)
Temperatures Readings
Current 4°C / 39°F
Dewpoint 2°C / 36°F
Humidity 87%
Altimeter 30.1" Hg
Pressure 1020.1 hPa
Elevation 582
METAR KN60 181052Z AUTO 00000KT 04/02 A3010 RMK AO1 SLP201 T00390017
Observed Flight Rules
Oct-18 @ 10:52 UTC
(39 minutes ago)
Temperature Dewpoint
4°C / 39°F 2°C / 36°F
Humidity Altimeter Pressure
87% 30.1" Hg 1020.1 hPa